Terminal Aerodrome Forecast
Issued by NWS

Home | Current Version | Previous Version | Graphics & Text | Print | Product List | Glossary On
Versions: 1 2 3 4 5 6 7 8 9 10 11 12 13 14 15 16
000
FTUS43 KGRB 210520
TAFCWA
TAF
KCWA 210520Z 2106/2206 VRB03KT P6SM FEW250
      TEMPO 2107/2111 1SM BR SCT002
     FM211500 21005KT P6SM SCT045
     FM212200 18006KT P6SM BKN060
     FM220200 17006KT P6SM SCT035 BKN060
      TEMPO 2202/2206 -SHRA BKN035
      AMD LTD TO CLD VIS AND WIND TIL 211100=

USA.gov is the U.S. government's official web portal to all federal, state and local government web resources and services.